createdAt,value
2023-11-23T00:00:11.520Z,13.90
2023-11-23T00:02:39.861Z,13.50
2023-11-23T00:05:08.171Z,13.60
2023-11-23T00:07:35.342Z,13.70
2023-11-23T00:10:02.478Z,13.80
2023-11-23T00:12:29.158Z,13.30
2023-11-23T00:14:55.851Z,13.70
2023-11-23T00:17:22.621Z,13.70
2023-11-23T00:19:49.432Z,13.60
2023-11-23T00:22:19.175Z,13.60
2023-11-23T00:24:46.392Z,13.60
2023-11-23T00:27:16.259Z,13.60
2023-11-23T00:29:43.233Z,13.70
2023-11-23T00:32:09.943Z,13.40
2023-11-23T00:34:36.703Z,13.60
2023-11-23T00:37:03.594Z,13.80
2023-11-23T00:39:30.288Z,13.70
2023-11-23T00:41:57.000Z,13.60
2023-11-23T00:44:23.779Z,13.50
2023-11-23T00:46:50.507Z,13.00
2023-11-23T00:49:17.321Z,13.40
2023-11-23T00:51:44.973Z,13.10
2023-11-23T00:54:11.956Z,13.00
2023-11-23T00:56:38.905Z,13.60
2023-11-23T00:59:05.592Z,13.40
2023-11-23T01:01:32.499Z,13.20
2023-11-23T01:03:59.512Z,13.20
2023-11-23T01:06:26.333Z,13.20
2023-11-23T01:08:53.198Z,13.50
2023-11-23T01:11:19.930Z,13.70
2023-11-23T01:13:47.573Z,14.00
2023-11-23T01:16:14.330Z,13.60
2023-11-23T01:18:43.414Z,13.80
2023-11-23T01:21:10.445Z,13.80
2023-11-23T01:23:37.319Z,13.40
2023-11-23T01:26:04.121Z,13.80
2023-11-23T01:28:30.784Z,13.50
2023-11-23T01:30:57.441Z,13.60
2023-11-23T01:33:24.307Z,13.50
2023-11-23T01:35:51.638Z,13.70
2023-11-23T01:38:19.380Z,13.80
2023-11-23T01:40:46.032Z,13.80
2023-11-23T01:43:12.822Z,13.70
2023-11-23T01:45:40.581Z,13.80
2023-11-23T01:48:07.739Z,13.70
2023-11-23T01:50:36.465Z,13.80
2023-11-23T01:53:04.664Z,13.80
2023-11-23T01:55:32.058Z,14.00
2023-11-23T01:58:03.779Z,13.70
2023-11-23T02:00:31.579Z,13.60
2023-11-23T02:03:00.397Z,13.70
2023-11-23T02:05:27.665Z,13.90
2023-11-23T02:07:54.639Z,14.10
2023-11-23T02:10:21.514Z,14.10
2023-11-23T02:12:50.729Z,14.40
2023-11-23T02:15:19.129Z,14.40
2023-11-23T02:17:46.020Z,14.20
2023-11-23T02:20:12.864Z,13.90
2023-11-23T02:22:39.651Z,13.90
2023-11-23T02:25:08.058Z,14.10
2023-11-23T02:27:37.810Z,13.90
2023-11-23T02:30:07.135Z,13.80
2023-11-23T02:32:34.359Z,14.00
2023-11-23T02:35:01.676Z,14.20
2023-11-23T02:37:28.397Z,13.60
2023-11-23T02:39:55.041Z,14.00
2023-11-23T02:42:21.958Z,13.90
2023-11-23T02:44:48.883Z,13.50
2023-11-23T02:47:15.621Z,13.60
2023-11-23T02:49:42.373Z,13.60
2023-11-23T02:52:09.219Z,13.50
2023-11-23T02:54:35.889Z,13.80
2023-11-23T02:57:02.682Z,13.60
2023-11-23T02:59:29.394Z,13.70
2023-11-23T03:01:56.407Z,13.80
2023-11-23T03:04:23.191Z,14.00
2023-11-23T03:06:50.128Z,13.80
2023-11-23T03:09:20.498Z,13.90
2023-11-23T03:11:47.589Z,13.90
2023-11-23T03:14:14.339Z,13.90
2023-11-23T03:16:42.643Z,14.00
2023-11-23T03:19:09.824Z,13.90
2023-11-23T03:21:37.042Z,13.80
2023-11-23T03:24:04.469Z,13.80
2023-11-23T03:26:31.223Z,14.20
2023-11-23T03:28:57.885Z,14.20
2023-11-23T03:31:24.598Z,14.00
2023-11-23T03:33:51.285Z,14.00
2023-11-23T03:36:18.958Z,13.90
2023-11-23T03:38:45.911Z,13.90
2023-11-23T03:41:12.638Z,13.60
2023-11-23T03:43:39.368Z,14.10
2023-11-23T03:46:06.189Z,13.90
2023-11-23T03:48:32.961Z,13.90
2023-11-23T03:50:59.681Z,14.00
2023-11-23T03:53:26.517Z,13.80
2023-11-23T03:55:53.182Z,13.90
2023-11-23T03:58:19.953Z,13.90
2023-11-23T04:00:46.788Z,14.00
2023-11-23T04:03:13.496Z,14.10
2023-11-23T04:05:41.230Z,13.90
2023-11-23T04:08:08.114Z,13.90
2023-11-23T04:10:35.092Z,13.90
2023-11-23T04:13:01.851Z,13.90
2023-11-23T04:15:29.908Z,13.80
2023-11-23T04:17:56.830Z,13.80
2023-11-23T04:20:23.609Z,13.80
2023-11-23T04:22:50.450Z,13.90
2023-11-23T04:25:17.209Z,13.70
2023-11-23T04:27:44.608Z,14.00
2023-11-23T04:30:12.165Z,13.80
2023-11-23T04:32:39.077Z,13.40
2023-11-23T04:35:06.157Z,13.70
2023-11-23T04:37:33.506Z,13.80
2023-11-23T04:40:00.364Z,13.80
2023-11-23T04:42:27.210Z,14.00
2023-11-23T04:44:53.990Z,14.10
2023-11-23T04:47:20.749Z,14.10
2023-11-23T04:49:48.572Z,13.90
2023-11-23T04:52:15.245Z,14.10
2023-11-23T04:54:41.978Z,14.10
2023-11-23T04:57:08.710Z,14.10
2023-11-23T04:59:35.432Z,13.70
2023-11-23T05:02:02.184Z,14.10
2023-11-23T05:04:29.000Z,14.30
2023-11-23T05:06:57.192Z,13.90
2023-11-23T05:09:24.161Z,13.90
2023-11-23T05:11:50.952Z,14.20
2023-11-23T05:14:18.271Z,14.10
2023-11-23T05:16:45.061Z,13.80
2023-11-23T05:19:11.858Z,13.80
2023-11-23T05:21:38.555Z,13.90
2023-11-23T05:24:05.788Z,14.00
2023-11-23T05:26:32.607Z,14.20
2023-11-23T05:28:59.336Z,14.00
2023-11-23T05:31:26.095Z,14.10
2023-11-23T05:33:53.843Z,13.90
2023-11-23T05:36:20.704Z,14.00
2023-11-23T05:38:47.624Z,14.10
2023-11-23T05:41:14.918Z,14.20
2023-11-23T05:43:42.377Z,13.70
2023-11-23T05:46:11.661Z,13.70
2023-11-23T05:48:39.857Z,13.70
2023-11-23T05:51:06.764Z,13.70
2023-11-23T05:53:33.461Z,14.00
2023-11-23T05:56:00.327Z,14.10
2023-11-23T05:58:27.216Z,13.80
2023-11-23T06:01:03.447Z,14.10
2023-11-23T06:03:39.054Z,13.80
2023-11-23T06:06:06.409Z,13.70
2023-11-23T06:08:33.203Z,14.10
2023-11-23T06:10:59.949Z,13.80
2023-11-23T06:13:26.666Z,14.10
2023-11-23T06:15:53.504Z,14.50
2023-11-23T06:18:22.971Z,14.10
2023-11-23T06:20:50.161Z,14.50
2023-11-23T06:23:16.943Z,14.50
2023-11-23T06:25:43.896Z,14.50
2023-11-23T06:28:15.312Z,14.70
2023-11-23T06:30:45.855Z,14.50
2023-11-23T06:33:13.205Z,14.20
2023-11-23T06:35:40.761Z,13.80
2023-11-23T06:38:07.545Z,14.00
2023-11-23T06:40:35.380Z,14.50
2023-11-23T06:43:03.545Z,14.30
2023-11-23T06:45:31.130Z,14.60
2023-11-23T06:47:58.929Z,14.40
2023-11-23T06:50:25.697Z,14.60
2023-11-23T06:52:52.380Z,14.70
2023-11-23T06:55:19.826Z,15.20
2023-11-23T06:57:49.753Z,15.20
2023-11-23T07:00:24.499Z,14.80
2023-11-23T07:02:56.899Z,14.70
2023-11-23T07:05:27.944Z,15.30
2023-11-23T07:07:55.498Z,14.90
2023-11-23T07:10:23.245Z,14.30
2023-11-23T07:12:51.541Z,14.20
2023-11-23T07:15:19.315Z,14.40
2023-11-23T07:17:48.813Z,14.60
2023-11-23T07:20:19.834Z,14.50
2023-11-23T07:22:46.662Z,14.60
2023-11-23T07:25:14.765Z,14.90
2023-11-23T07:27:42.587Z,15.00
2023-11-23T07:30:09.801Z,15.20
2023-11-23T07:32:37.282Z,14.90
2023-11-23T07:35:05.387Z,15.40
2023-11-23T07:37:34.746Z,14.80
2023-11-23T07:40:05.789Z,14.80
2023-11-23T07:42:33.773Z,14.80
2023-11-23T07:45:00.701Z,15.10
2023-11-23T07:47:29.064Z,15.60
2023-11-23T07:49:56.684Z,15.20
2023-11-23T07:52:23.407Z,15.10
2023-11-23T07:54:50.791Z,15.50
2023-11-23T07:57:18.468Z,15.40
2023-11-23T07:59:45.218Z,14.70
2023-11-23T08:02:12.111Z,14.30
2023-11-23T08:04:39.144Z,13.90
2023-11-23T08:07:05.992Z,14.00
2023-11-23T08:09:32.814Z,14.10
2023-11-23T08:11:59.657Z,14.30
2023-11-23T08:14:26.330Z,14.80
2023-11-23T08:16:53.108Z,14.00
2023-11-23T08:19:20.051Z,14.20
2023-11-23T08:21:50.025Z,14.80
2023-11-23T08:24:18.465Z,14.50
2023-11-23T08:26:45.657Z,14.50
2023-11-23T08:29:12.834Z,14.50
2023-11-23T08:31:40.926Z,14.10
2023-11-23T08:34:09.101Z,14.40
2023-11-23T08:36:37.199Z,14.40
2023-11-23T08:39:06.256Z,14.20
2023-11-23T08:41:33.245Z,15.20
2023-11-23T08:44:00.992Z,15.10
2023-11-23T08:46:28.565Z,15.40
2023-11-23T08:48:55.699Z,14.70
2023-11-23T08:51:23.605Z,14.90
2023-11-23T08:53:51.180Z,15.30
2023-11-23T08:56:18.066Z,15.10
2023-11-23T08:58:45.811Z,14.90
2023-11-23T09:01:12.631Z,14.80
2023-11-23T09:03:39.770Z,14.80
2023-11-23T09:06:06.987Z,15.00
2023-11-23T09:08:33.854Z,14.90
2023-11-23T09:11:00.796Z,14.80
2023-11-23T09:13:28.066Z,14.70
2023-11-23T09:15:55.402Z,14.90
2023-11-23T09:18:23.112Z,14.80
2023-11-23T09:20:52.343Z,14.90
2023-11-23T09:23:19.285Z,15.30
2023-11-23T09:25:46.976Z,15.70
2023-11-23T09:28:14.392Z,14.70
2023-11-23T09:30:42.519Z,15.10
2023-11-23T09:33:10.732Z,14.90
2023-11-23T09:35:43.426Z,15.00
2023-11-23T09:38:10.356Z,14.90
2023-11-23T09:40:37.720Z,14.90
2023-11-23T09:43:05.827Z,15.10
2023-11-23T09:45:33.244Z,14.90
2023-11-23T09:48:01.968Z,14.70
2023-11-23T09:50:33.821Z,15.00
2023-11-23T09:53:04.188Z,15.40
2023-11-23T09:55:31.913Z,15.10
2023-11-23T09:57:58.642Z,15.10
2023-11-23T10:00:26.270Z,15.20
2023-11-23T10:03:02.533Z,15.00
2023-11-23T10:05:29.814Z,14.90
2023-11-23T10:07:56.561Z,14.70
2023-11-23T10:10:23.301Z,14.80
2023-11-23T10:12:50.491Z,14.90
2023-11-23T10:15:17.439Z,15.20
2023-11-23T10:17:44.316Z,14.90
2023-11-23T10:20:14.137Z,15.40
2023-11-23T10:22:45.611Z,14.50
2023-11-23T10:25:36.573Z,14.70
2023-11-23T10:28:07.373Z,15.40
2023-11-23T10:30:37.515Z,14.90
2023-11-23T10:33:10.613Z,15.10
2023-11-23T10:35:39.941Z,15.30
2023-11-23T10:38:08.342Z,15.10
2023-11-23T10:40:35.839Z,14.70
2023-11-23T10:43:03.694Z,14.90
2023-11-23T10:45:34.696Z,15.40
2023-11-23T10:48:04.214Z,15.20
2023-11-23T10:50:33.003Z,15.40
2023-11-23T10:53:02.614Z,15.40
2023-11-23T10:55:29.335Z,15.60
2023-11-23T10:58:06.858Z,15.70
2023-11-23T11:00:34.099Z,15.30
2023-11-23T11:03:05.591Z,15.60
2023-11-23T11:05:36.752Z,15.20
2023-11-23T11:08:08.503Z,15.20
2023-11-23T11:10:38.200Z,15.10
2023-11-23T11:13:11.397Z,15.10
2023-11-23T11:15:48.543Z,15.40
2023-11-23T11:18:21.896Z,15.30
2023-11-23T11:21:02.109Z,15.00
2023-11-23T11:23:46.167Z,15.10
2023-11-23T11:26:15.856Z,15.50
2023-11-23T11:28:42.699Z,15.30
2023-11-23T11:31:15.933Z,15.30
2023-11-23T11:33:42.767Z,15.30
2023-11-23T11:36:12.485Z,14.90
2023-11-23T11:38:40.555Z,15.30
2023-11-23T11:41:10.954Z,15.80
2023-11-23T11:43:37.702Z,15.30
2023-11-23T11:46:06.241Z,15.30
2023-11-23T11:48:33.306Z,15.50
2023-11-23T11:51:00.932Z,15.20
2023-11-23T11:53:27.937Z,15.20
2023-11-23T11:55:56.899Z,15.30
2023-11-23T11:58:23.621Z,15.50
2023-11-23T12:00:50.383Z,15.90
2023-11-23T12:03:17.558Z,15.80
2023-11-23T12:05:46.571Z,15.90
2023-11-23T12:08:13.463Z,15.40
2023-11-23T12:10:41.349Z,15.60
2023-11-23T12:13:15.656Z,16.00
2023-11-23T12:15:43.556Z,16.00
2023-11-23T12:18:13.232Z,15.50
2023-11-23T12:20:40.535Z,15.50
2023-11-23T12:23:09.052Z,15.70
2023-11-23T12:25:36.836Z,15.60
2023-11-23T12:28:08.228Z,15.50
2023-11-23T12:30:35.064Z,15.50
2023-11-23T12:33:02.079Z,15.80
2023-11-23T12:35:29.849Z,15.60
2023-11-23T12:37:57.319Z,15.80
2023-11-23T12:40:26.832Z,15.60
2023-11-23T12:42:54.700Z,15.10
2023-11-23T12:45:21.444Z,15.70
2023-11-23T12:47:48.983Z,15.90
2023-11-23T12:50:15.770Z,15.70
2023-11-23T12:52:42.557Z,16.00
2023-11-23T12:55:10.635Z,15.40
2023-11-23T12:57:40.598Z,15.60
2023-11-23T13:00:14.508Z,15.50
2023-11-23T13:02:42.463Z,15.50
2023-11-23T13:05:10.938Z,15.90
2023-11-23T13:07:38.771Z,15.40
2023-11-23T13:10:13.094Z,15.60
2023-11-23T13:12:39.948Z,15.50
2023-11-23T13:15:08.547Z,15.70
2023-11-23T13:17:37.908Z,15.20
2023-11-23T13:20:10.532Z,14.90
2023-11-23T13:22:41.643Z,15.10
2023-11-23T13:25:12.801Z,15.10
2023-11-23T13:27:41.729Z,15.20
2023-11-23T13:30:10.024Z,15.40
2023-11-23T13:32:39.818Z,15.40
2023-11-23T13:35:09.837Z,15.40
2023-11-23T13:37:36.514Z,15.20
2023-11-23T13:40:08.301Z,15.00
2023-11-23T13:42:35.440Z,15.40
2023-11-23T13:45:03.684Z,15.00
2023-11-23T13:47:30.502Z,15.20
2023-11-23T13:49:57.262Z,15.20
2023-11-23T13:52:24.026Z,15.00
2023-11-23T13:54:50.919Z,15.30
2023-11-23T13:57:18.173Z,15.10
2023-11-23T13:59:45.027Z,15.10
2023-11-23T14:02:14.062Z,15.30
2023-11-23T14:04:41.505Z,15.30
2023-11-23T14:07:08.434Z,14.90
2023-11-23T14:09:35.218Z,14.70
2023-11-23T14:12:03.071Z,14.80
2023-11-23T14:14:30.283Z,15.30
2023-11-23T14:16:57.131Z,14.70
2023-11-23T14:19:24.223Z,15.10
2023-11-23T14:21:56.634Z,15.20
2023-11-23T14:24:23.339Z,14.70
2023-11-23T14:26:50.847Z,14.90
2023-11-23T14:29:17.943Z,15.10
2023-11-23T14:31:50.839Z,15.40
2023-11-23T14:34:17.947Z,15.60
2023-11-23T14:36:45.635Z,15.60
2023-11-23T14:39:17.153Z,15.00
2023-11-23T14:41:44.780Z,15.30
2023-11-23T14:44:11.446Z,14.80
2023-11-23T14:46:38.109Z,14.60
2023-11-23T14:49:06.510Z,15.00
2023-11-23T14:51:33.309Z,15.10
2023-11-23T14:54:09.739Z,14.90
2023-11-23T14:56:37.478Z,14.90
2023-11-23T14:59:07.209Z,15.30
2023-11-23T15:01:36.322Z,15.90
2023-11-23T15:04:04.028Z,15.10
2023-11-23T15:06:31.518Z,15.50
2023-11-23T15:08:58.436Z,15.20
2023-11-23T15:11:25.301Z,15.70
2023-11-23T15:13:52.121Z,15.20
2023-11-23T15:16:19.206Z,15.50
2023-11-23T15:18:46.229Z,15.10
2023-11-23T15:21:13.000Z,15.20
2023-11-23T15:23:39.742Z,15.20
2023-11-23T15:26:09.637Z,15.60
2023-11-23T15:28:36.824Z,15.20
2023-11-23T15:31:03.596Z,15.00
2023-11-23T15:33:31.771Z,15.40
2023-11-23T15:35:58.886Z,15.30
2023-11-23T15:38:25.590Z,15.00
2023-11-23T15:40:53.625Z,14.70
2023-11-23T15:43:20.306Z,15.30
2023-11-23T15:45:47.321Z,15.20
2023-11-23T15:48:14.193Z,15.30
2023-11-23T15:50:41.712Z,15.50
2023-11-23T15:53:08.584Z,15.40
2023-11-23T15:55:37.534Z,15.10
2023-11-23T15:58:04.505Z,15.30
2023-11-23T16:00:32.928Z,15.70
2023-11-23T16:03:00.611Z,15.30
2023-11-23T16:05:28.887Z,14.90
2023-11-23T16:07:56.558Z,15.20
2023-11-23T16:10:23.422Z,14.90
2023-11-23T16:12:52.255Z,15.40
2023-11-23T16:15:19.912Z,15.40
2023-11-23T16:17:47.662Z,15.30
2023-11-23T16:20:19.686Z,15.10
2023-11-23T16:22:46.623Z,15.20
2023-11-23T16:25:13.539Z,15.30
2023-11-23T16:27:40.489Z,15.30
2023-11-23T16:30:12.420Z,15.20
2023-11-23T16:32:40.740Z,15.10
2023-11-23T16:35:08.038Z,15.00
2023-11-23T16:37:35.297Z,13.90
2023-11-23T16:40:02.112Z,13.40
2023-11-23T16:42:28.872Z,13.60
2023-11-23T16:44:55.849Z,13.30
2023-11-23T16:47:23.125Z,13.20
2023-11-23T16:49:49.855Z,13.10
2023-11-23T16:52:16.524Z,13.10
2023-11-23T16:54:43.243Z,13.00
2023-11-23T16:57:10.000Z,13.10
2023-11-23T16:59:37.359Z,13.10
2023-11-23T17:02:04.786Z,13.00
2023-11-23T17:04:31.657Z,13.00
2023-11-23T17:06:58.465Z,13.00
2023-11-23T17:09:25.530Z,13.10
2023-11-23T17:11:53.948Z,13.20
2023-11-23T17:14:21.071Z,12.90
2023-11-23T17:16:50.859Z,12.90
2023-11-23T17:19:17.684Z,12.80
2023-11-23T17:21:49.619Z,12.80
2023-11-23T17:24:17.592Z,12.80
2023-11-23T17:26:44.872Z,12.80
2023-11-23T17:29:11.929Z,13.60
2023-11-23T17:31:42.372Z,14.00
2023-11-23T17:34:09.410Z,14.30
2023-11-23T17:36:36.263Z,14.60
2023-11-23T17:39:03.966Z,14.70
2023-11-23T17:41:30.928Z,14.80
2023-11-23T17:43:57.789Z,13.90
2023-11-23T17:46:24.828Z,14.30
2023-11-23T17:48:51.855Z,14.40
2023-11-23T17:51:19.681Z,14.70
2023-11-23T17:53:46.545Z,14.90
2023-11-23T17:56:16.271Z,14.40
2023-11-23T17:58:43.076Z,14.30
2023-11-23T18:01:09.979Z,15.00
2023-11-23T18:03:36.829Z,14.80
2023-11-23T18:06:03.681Z,14.40
2023-11-23T18:08:30.378Z,14.00
2023-11-23T18:10:59.922Z,14.00
2023-11-23T18:13:27.721Z,14.20
2023-11-23T18:15:54.467Z,14.00
2023-11-23T18:18:24.409Z,14.40
2023-11-23T18:20:52.998Z,15.10
2023-11-23T18:23:20.502Z,14.80
2023-11-23T18:25:47.747Z,14.80
2023-11-23T18:28:14.468Z,14.70
2023-11-23T18:30:41.341Z,14.40
2023-11-23T18:33:08.132Z,14.70
2023-11-23T18:35:34.888Z,14.20
2023-11-23T18:38:06.531Z,14.60
2023-11-23T18:40:36.909Z,14.70
2023-11-23T18:43:04.675Z,14.90
2023-11-23T18:45:35.071Z,14.70
2023-11-23T18:48:03.547Z,14.60
2023-11-23T18:50:30.453Z,14.10
2023-11-23T18:52:59.056Z,14.30
2023-11-23T18:55:26.817Z,14.50
2023-11-23T18:57:54.045Z,14.60
2023-11-23T19:00:22.861Z,14.10
2023-11-23T19:02:51.159Z,14.50
2023-11-23T19:05:19.617Z,14.00
2023-11-23T19:07:46.395Z,14.20
2023-11-23T19:10:16.403Z,14.00
2023-11-23T19:12:45.979Z,14.10
2023-11-23T19:15:13.232Z,14.20
2023-11-23T19:17:45.593Z,14.30
2023-11-23T19:20:14.211Z,14.50
2023-11-23T19:22:41.521Z,13.80
2023-11-23T19:25:09.969Z,14.50
2023-11-23T19:27:37.852Z,14.40
2023-11-23T19:30:06.825Z,13.80
2023-11-23T19:32:33.984Z,14.40
2023-11-23T19:35:01.300Z,14.00
2023-11-23T19:37:28.405Z,14.00
2023-11-23T19:39:55.566Z,14.30
2023-11-23T19:42:23.426Z,14.10
2023-11-23T19:44:50.522Z,13.80
2023-11-23T19:47:17.938Z,14.20
2023-11-23T19:49:44.984Z,13.90
2023-11-23T19:52:15.275Z,14.00
2023-11-23T19:54:42.239Z,14.30
2023-11-23T19:57:09.783Z,14.40
2023-11-23T19:59:36.586Z,14.20
2023-11-23T20:02:04.171Z,14.40
2023-11-23T20:04:32.519Z,13.90
2023-11-23T20:06:59.326Z,14.20
2023-11-23T20:09:26.038Z,13.80
2023-11-23T20:11:52.847Z,13.60
2023-11-23T20:14:19.534Z,13.60
2023-11-23T20:16:46.854Z,13.00
2023-11-23T20:19:13.710Z,12.70
2023-11-23T20:21:40.921Z,13.50
2023-11-23T20:24:08.030Z,13.20
2023-11-23T20:26:34.757Z,13.20
2023-11-23T20:29:01.442Z,13.30
2023-11-23T20:31:29.414Z,13.00
2023-11-23T20:33:56.287Z,12.80
2023-11-23T20:36:23.893Z,12.90
2023-11-23T20:38:51.005Z,13.20
2023-11-23T20:41:17.696Z,13.40
2023-11-23T20:43:44.439Z,12.90
2023-11-23T20:46:13.041Z,13.20
2023-11-23T20:48:43.052Z,13.00
2023-11-23T20:51:14.543Z,12.90
2023-11-23T20:53:41.578Z,12.60
2023-11-23T20:56:09.754Z,12.70
2023-11-23T20:58:36.684Z,12.60
2023-11-23T21:01:04.082Z,13.10
2023-11-23T21:03:31.097Z,13.60
2023-11-23T21:05:58.446Z,13.00
2023-11-23T21:08:25.364Z,13.00
2023-11-23T21:10:52.102Z,12.90
2023-11-23T21:13:18.915Z,12.80
2023-11-23T21:15:45.729Z,12.50
2023-11-23T21:18:13.188Z,12.70
2023-11-23T21:20:41.159Z,12.50
2023-11-23T21:23:07.832Z,12.60
2023-11-23T21:25:36.069Z,12.60
2023-11-23T21:28:03.870Z,12.50
2023-11-23T21:30:31.369Z,13.00
2023-11-23T21:32:58.213Z,12.60
2023-11-23T21:35:27.186Z,12.40
2023-11-23T21:37:53.934Z,12.70
2023-11-23T21:40:22.374Z,12.80
2023-11-23T21:42:49.173Z,12.90
2023-11-23T21:45:16.272Z,12.30
2023-11-23T21:47:43.022Z,12.50
2023-11-23T21:50:09.914Z,12.60
2023-11-23T21:52:37.340Z,12.60
2023-11-23T21:55:04.786Z,12.30
2023-11-23T21:57:31.688Z,12.30
2023-11-23T21:59:58.415Z,12.00
2023-11-23T22:02:25.146Z,12.00
2023-11-23T22:04:52.028Z,11.80
2023-11-23T22:07:18.715Z,12.50
2023-11-23T22:09:45.470Z,12.30
2023-11-23T22:12:12.258Z,12.00
2023-11-23T22:14:39.239Z,12.30
2023-11-23T22:17:06.364Z,12.30
2023-11-23T22:19:33.388Z,12.80
2023-11-23T22:22:00.335Z,11.70
2023-11-23T22:24:28.193Z,11.70
2023-11-23T22:26:55.441Z,11.50
2023-11-23T22:29:22.151Z,11.40
2023-11-23T22:31:51.118Z,11.30
2023-11-23T22:34:18.153Z,11.30
2023-11-23T22:36:46.427Z,12.00
2023-11-23T22:39:14.876Z,12.10
2023-11-23T22:41:41.793Z,11.10
2023-11-23T22:44:10.600Z,11.40
2023-11-23T22:46:37.926Z,11.30
2023-11-23T22:49:04.771Z,12.20
2023-11-23T22:51:31.761Z,11.10
2023-11-23T22:53:58.889Z,11.20
2023-11-23T22:56:25.638Z,11.20
2023-11-23T22:58:52.409Z,11.00
2023-11-23T23:01:19.596Z,11.00
2023-11-23T23:03:46.482Z,10.60
2023-11-23T23:06:13.837Z,10.50
2023-11-23T23:08:40.586Z,10.40
2023-11-23T23:11:11.336Z,10.60
2023-11-23T23:13:38.270Z,11.00
2023-11-23T23:16:05.464Z,10.10
2023-11-23T23:18:32.899Z,10.20
2023-11-23T23:20:59.635Z,10.10
2023-11-23T23:23:26.351Z,10.20
2023-11-23T23:25:53.118Z,9.80
2023-11-23T23:28:29.308Z,10.00
2023-11-23T23:30:58.998Z,10.20
2023-11-23T23:33:25.998Z,9.70
2023-11-23T23:35:53.343Z,10.20
2023-11-23T23:38:20.395Z,10.00
2023-11-23T23:40:51.544Z,9.60
2023-11-23T23:43:18.724Z,10.10
2023-11-23T23:45:45.782Z,10.20
2023-11-23T23:48:12.658Z,9.70
2023-11-23T23:50:41.502Z,9.50
2023-11-23T23:53:09.500Z,9.60
2023-11-23T23:55:36.268Z,9.40
2023-11-23T23:58:05.624Z,10.10
